Share

Current weather conditions updated 9 minutes ago

Scattered Clouds
Scattered Clouds
51.3 °F
Feels Like 51.3 °F
N
0.0
Wind Variable Wind from WNW
Gusts 0.0 mph
Sunrise 7:01 AM
Sunset 8:52 PM
Moon Waning Gibbous

Tomorrow is forecast to be Much Warmer than today.

Pressure 30.00 in
Visibility 10.0 miles
Clouds Scattered Clouds 6000 ft
Dew Point 40 °F
Humidity 64%
Rainfall 0.00 in
Snow Depth Not available.
UV 1 out of 16
Pollen 6.90 out of 12
Air Quality Not available.
Flu Activity Sporadic
METAR KLNL 202315Z AUTO 36005KT 10SM SCT060 18/01 A3000 RMK AO2 T01760006

More Conditions Fewer Conditions

Pressure 30.00 in
Visibility 10.0 miles
Clouds Scattered Clouds 6000 ft
Dew Point 40 °F
Humidity 64%
Rainfall 0.00 in
Snow Depth Not available.
UV 1 out of 16
Pollen 6.90 out of 12
Air Quality Not available.
Flu Activity Sporadic
METAR KLNL 202315Z AUTO 36005KT 10SM SCT060 18/01 A3000 RMK AO2 T01760006

More Conditions Fewer Conditions

10-Day Weather Forecast

Almanac

Astronomy

Apr. 20, 2014 Rise Set
Actual Time 7:01 AM EDT 8:52 PM EDT
Civil Twilight 6:29 AM EDT 9:24 PM EDT
Nautical Twilight 5:49 AM EDT 10:04 PM EDT
Astronomical Twilight 5:06 AM EDT 10:47 PM EDT
Moon 1:39 AM EDT 11:14 AM EDT
Length of Visible Light 14h 55m
Length of Day
13h 50m
Tomorrow will be 3m 6s longer.
Waning Gibbous, 65% of the Moon is Illuminated
Today
Waning Gibbous
Apr 22
Last Quarter
Apr 29
New
May 6
First Quarter
May 14
Full

Today's Extremes

State Highs State Lows

Community

  • Easter Dance
    Easter Dance
  • spring skiing mount Baker WA
    spring skiing mount Baker WA
  • Morning Sun
    Morning Sun
  • Happy Easter
    Happy Easter
  • after rain
    after rain

WunderPhotos

Upload Photos

1,703,431 photos uploaded!

WunderBlogs® & News

Nearby

Snow Depth

Station Depth Elevation
No new snow has been reported.

Coastal Water Temperatures

Place Temperature
No Stations Reporting

Earthquake Activity

City Distance Mag. Time & Date
No recent earthquake activity has been reported nearby.
Minimum magnitude displayed is 2.5.

Nearby Weather Stations

Station Location Temp. Dew Point Humidity Wind Precip. Elev Updated Type
Mountain View Lodges, Silver City, MI / , Ontonagon, MI 51.3 °F 40 °F 64% WNW  at  0.0 mph 0.00 in / hr 587 ft 7:20 PM EDT Normal
RAWS WAKEFIELD MI, Wakefield, MI 62 °F 34 °F 35% North  at  6 mph 0.00 in / hr 1200 ft 6:01 PM CDT MADIS
RAWS KENTON MI, Nisula, MI 62 °F 31 °F 31% NW  at  5 mph 0.00 in / hr 1262 ft 6:56 PM EDT MADIS

Show More Stations Show Fewer Stations

What do you think?

We're not finished. Please let us know what you like, what you don't like, and what you are still missing.